sensor_id;sensor_type;location;lat;lon;timestamp;P1;durP1;ratioP1;P2;durP2;ratioP2
71869;SDS011;59739;47.696;11.746;2023-02-15T00:02:25;2.10;;;1.85;;
71869;SDS011;59739;47.696;11.746;2023-02-15T00:04:51;2.15;;;1.20;;
71869;SDS011;59739;47.696;11.746;2023-02-15T00:07:18;2.08;;;1.75;;
71869;SDS011;59739;47.696;11.746;2023-02-15T00:09:47;1.50;;;1.30;;
71869;SDS011;59739;47.696;11.746;2023-02-15T00:12:14;1.60;;;1.50;;
71869;SDS011;59739;47.696;11.746;2023-02-15T00:14:41;2.50;;;1.65;;
71869;SDS011;59739;47.696;11.746;2023-02-15T00:17:07;3.10;;;1.65;;
71869;SDS011;59739;47.696;11.746;2023-02-15T00:19:33;1.77;;;1.45;;
71869;SDS011;59739;47.696;11.746;2023-02-15T00:21:59;2.03;;;1.48;;
71869;SDS011;59739;47.696;11.746;2023-02-15T00:24:25;2.08;;;1.60;;
71869;SDS011;59739;47.696;11.746;2023-02-15T00:26:52;1.65;;;1.25;;
71869;SDS011;59739;47.696;11.746;2023-02-15T00:29:24;2.17;;;1.40;;
71869;SDS011;59739;47.696;11.746;2023-02-15T00:31:53;1.67;;;1.33;;
71869;SDS011;59739;47.696;11.746;2023-02-15T00:34:20;2.30;;;1.20;;
71869;SDS011;59739;47.696;11.746;2023-02-15T00:36:55;2.05;;;1.40;;
71869;SDS011;59739;47.696;11.746;2023-02-15T00:39:21;2.10;;;1.40;;
71869;SDS011;59739;47.696;11.746;2023-02-15T00:41:48;2.25;;;1.27;;
71869;SDS011;59739;47.696;11.746;2023-02-15T00:44:14;2.13;;;1.50;;
71869;SDS011;59739;47.696;11.746;2023-02-15T00:46:41;2.38;;;1.45;;
71869;SDS011;59739;47.696;11.746;2023-02-15T00:49:08;2.25;;;1.50;;
71869;SDS011;59739;47.696;11.746;2023-02-15T00:51:35;2.42;;;1.40;;
71869;SDS011;59739;47.696;11.746;2023-02-15T00:54:01;1.83;;;1.50;;
71869;SDS011;59739;47.696;11.746;2023-02-15T00:56:28;1.92;;;1.10;;
71869;SDS011;59739;47.696;11.746;2023-02-15T00:58:54;1.50;;;1.10;;
71869;SDS011;59739;47.696;11.746;2023-02-15T01:01:21;1.42;;;1.10;;
71869;SDS011;59739;47.696;11.746;2023-02-15T01:03:49;1.55;;;1.20;;
71869;SDS011;59739;47.696;11.746;2023-02-15T01:06:16;2.17;;;1.40;;
71869;SDS011;59739;47.696;11.746;2023-02-15T01:08:43;1.52;;;1.20;;
71869;SDS011;59739;47.696;11.746;2023-02-15T01:11:12;2.40;;;1.30;;
71869;SDS011;59739;47.696;11.746;2023-02-15T01:13:47;2.63;;;1.20;;
71869;SDS011;59739;47.696;11.746;2023-02-15T01:16:19;1.35;;;1.08;;
71869;SDS011;59739;47.696;11.746;2023-02-15T01:18:47;1.90;;;1.25;;
71869;SDS011;59739;47.696;11.746;2023-02-15T01:21:16;1.63;;;1.25;;
71869;SDS011;59739;47.696;11.746;2023-02-15T01:23:45;1.35;;;1.23;;
71869;SDS011;59739;47.696;11.746;2023-02-15T01:26:11;1.42;;;1.17;;
71869;SDS011;59739;47.696;11.746;2023-02-15T01:28:38;1.25;;;1.15;;
71869;SDS011;59739;47.696;11.746;2023-02-15T01:31:08;1.75;;;1.00;;
71869;SDS011;59739;47.696;11.746;2023-02-15T01:33:36;2.00;;;1.20;;
71869;SDS011;59739;47.696;11.746;2023-02-15T01:36:03;2.45;;;1.23;;
71869;SDS011;59739;47.696;11.746;2023-02-15T01:38:31;3.00;;;1.40;;
71869;SDS011;59739;47.696;11.746;2023-02-15T01:40:57;2.47;;;1.35;;
71869;SDS011;59739;47.696;11.746;2023-02-15T01:43:47;0.95;;;0.95;;
71869;SDS011;59739;47.696;11.746;2023-02-15T01:46:18;2.25;;;1.17;;
71869;SDS011;59739;47.696;11.746;2023-02-15T01:49:16;1.90;;;1.05;;
71869;SDS011;59739;47.696;11.746;2023-02-15T01:51:50;1.10;;;1.00;;
71869;SDS011;59739;47.696;11.746;2023-02-15T01:54:24;0.90;;;0.80;;
71869;SDS011;59739;47.696;11.746;2023-02-15T01:57:11;3.42;;;1.15;;
71869;SDS011;59739;47.696;11.746;2023-02-15T01:59:43;1.00;;;0.90;;
71869;SDS011;59739;47.696;11.746;2023-02-15T02:02:15;1.17;;;1.00;;
71869;SDS011;59739;47.696;11.746;2023-02-15T02:04:50;1.75;;;1.33;;
71869;SDS011;59739;47.696;11.746;2023-02-15T02:07:26;1.35;;;1.02;;
71869;SDS011;59739;47.696;11.746;2023-02-15T02:10:10;2.15;;;1.00;;
71869;SDS011;59739;47.696;11.746;2023-02-15T02:12:49;2.05;;;0.88;;
71869;SDS011;59739;47.696;11.746;2023-02-15T02:15:28;1.30;;;0.90;;
71869;SDS011;59739;47.696;11.746;2023-02-15T02:18:17;0.90;;;0.70;;
71869;SDS011;59739;47.696;11.746;2023-02-15T02:21:19;0.95;;;0.85;;
71869;SDS011;59739;47.696;11.746;2023-02-15T02:36:06;1.15;;;0.82;;
71869;SDS011;59739;47.696;11.746;2023-02-15T02:45:04;0.93;;;0.82;;
71869;SDS011;59739;47.696;11.746;2023-02-15T02:47:48;1.13;;;0.90;;
71869;SDS011;59739;47.696;11.746;2023-02-15T02:50:22;1.90;;;1.00;;
71869;SDS011;59739;47.696;11.746;2023-02-15T02:52:53;2.33;;;1.00;;
71869;SDS011;59739;47.696;11.746;2023-02-15T02:55:43;1.75;;;0.90;;
71869;SDS011;59739;47.696;11.746;2023-02-15T03:01:06;1.40;;;0.95;;
71869;SDS011;59739;47.696;11.746;2023-02-15T03:03:41;1.10;;;1.00;;
71869;SDS011;59739;47.696;11.746;2023-02-15T03:06:19;1.23;;;0.77;;
71869;SDS011;59739;47.696;11.746;2023-02-15T03:08:53;0.80;;;0.70;;
71869;SDS011;59739;47.696;11.746;2023-02-15T03:11:28;2.08;;;0.90;;
71869;SDS011;59739;47.696;11.746;2023-02-15T03:13:55;1.00;;;0.90;;
71869;SDS011;59739;47.696;11.746;2023-02-15T03:16:23;1.25;;;1.02;;
71869;SDS011;59739;47.696;11.746;2023-02-15T03:18:56;0.65;;;0.65;;
71869;SDS011;59739;47.696;11.746;2023-02-15T03:21:47;1.00;;;0.68;;
71869;SDS011;59739;47.696;11.746;2023-02-15T03:24:35;2.08;;;0.90;;
71869;SDS011;59739;47.696;11.746;2023-02-15T03:27:27;1.10;;;0.70;;
71869;SDS011;59739;47.696;11.746;2023-02-15T03:30:08;1.35;;;0.88;;
71869;SDS011;59739;47.696;11.746;2023-02-15T03:32:37;2.33;;;1.10;;
71869;SDS011;59739;47.696;11.746;2023-02-15T03:35:04;1.48;;;0.90;;
71869;SDS011;59739;47.696;11.746;2023-02-15T03:37:36;2.00;;;1.10;;
71869;SDS011;59739;47.696;11.746;2023-02-15T03:40:28;1.15;;;0.90;;
71869;SDS011;59739;47.696;11.746;2023-02-15T03:43:45;0.90;;;0.70;;
71869;SDS011;59739;47.696;11.746;2023-02-15T03:46:25;1.40;;;0.77;;
71869;SDS011;59739;47.696;11.746;2023-02-15T03:49:01;1.00;;;0.70;;
71869;SDS011;59739;47.696;11.746;2023-02-15T03:51:44;1.00;;;0.90;;
71869;SDS011;59739;47.696;11.746;2023-02-15T03:54:17;0.93;;;0.70;;
71869;SDS011;59739;47.696;11.746;2023-02-15T04:00:18;1.10;;;1.00;;
71869;SDS011;59739;47.696;11.746;2023-02-15T04:05:40;3.35;;;1.10;;
71869;SDS011;59739;47.696;11.746;2023-02-15T04:08:09;2.28;;;0.85;;
71869;SDS011;59739;47.696;11.746;2023-02-15T04:10:36;1.52;;;0.90;;
71869;SDS011;59739;47.696;11.746;2023-02-15T04:13:18;0.80;;;0.75;;
71869;SDS011;59739;47.696;11.746;2023-02-15T04:15:46;1.45;;;0.90;;
71869;SDS011;59739;47.696;11.746;2023-02-15T04:18:34;2.85;;;1.10;;
71869;SDS011;59739;47.696;11.746;2023-02-15T04:21:27;0.82;;;0.70;;
71869;SDS011;59739;47.696;11.746;2023-02-15T04:24:14;1.50;;;0.90;;
71869;SDS011;59739;47.696;11.746;2023-02-15T04:26:59;1.10;;;0.90;;
71869;SDS011;59739;47.696;11.746;2023-02-15T04:29:26;1.23;;;0.90;;
71869;SDS011;59739;47.696;11.746;2023-02-15T04:31:56;1.67;;;1.00;;
71869;SDS011;59739;47.696;11.746;2023-02-15T04:34:24;2.13;;;0.90;;
71869;SDS011;59739;47.696;11.746;2023-02-15T04:36:51;1.23;;;0.88;;
71869;SDS011;59739;47.696;11.746;2023-02-15T04:39:17;1.45;;;0.90;;
71869;SDS011;59739;47.696;11.746;2023-02-15T04:41:44;2.03;;;1.10;;
71869;SDS011;59739;47.696;11.746;2023-02-15T04:44:10;1.42;;;1.00;;
71869;SDS011;59739;47.696;11.746;2023-02-15T04:46:36;2.30;;;1.00;;
71869;SDS011;59739;47.696;11.746;2023-02-15T04:49:03;1.55;;;1.20;;
71869;SDS011;59739;47.696;11.746;2023-02-15T04:51:29;1.70;;;1.30;;
71869;SDS011;59739;47.696;11.746;2023-02-15T04:53:55;1.13;;;0.88;;
71869;SDS011;59739;47.696;11.746;2023-02-15T04:56:22;1.02;;;0.77;;
71869;SDS011;59739;47.696;11.746;2023-02-15T04:58:48;2.55;;;1.05;;
71869;SDS011;59739;47.696;11.746;2023-02-15T05:01:14;2.40;;;1.30;;
71869;SDS011;59739;47.696;11.746;2023-02-15T05:03:40;1.45;;;1.00;;
71869;SDS011;59739;47.696;11.746;2023-02-15T05:06:07;1.70;;;1.10;;
71869;SDS011;59739;47.696;11.746;2023-02-15T05:08:33;1.10;;;1.00;;
71869;SDS011;59739;47.696;11.746;2023-02-15T05:10:59;2.13;;;1.58;;
71869;SDS011;59739;47.696;11.746;2023-02-15T05:13:25;1.50;;;1.40;;
71869;SDS011;59739;47.696;11.746;2023-02-15T05:15:51;1.80;;;1.02;;
71869;SDS011;59739;47.696;11.746;2023-02-15T05:18:18;2.53;;;1.30;;
71869;SDS011;59739;47.696;11.746;2023-02-15T05:20:46;2.28;;;1.17;;
71869;SDS011;59739;47.696;11.746;2023-02-15T05:23:12;1.33;;;1.00;;
71869;SDS011;59739;47.696;11.746;2023-02-15T05:25:39;3.78;;;1.17;;
71869;SDS011;59739;47.696;11.746;2023-02-15T05:28:25;1.20;;;1.00;;
71869;SDS011;59739;47.696;11.746;2023-02-15T05:31:10;1.40;;;1.10;;
71869;SDS011;59739;47.696;11.746;2023-02-15T05:33:39;1.70;;;1.20;;
71869;SDS011;59739;47.696;11.746;2023-02-15T05:36:06;1.83;;;1.20;;
71869;SDS011;59739;47.696;11.746;2023-02-15T05:38:33;1.20;;;0.98;;
71869;SDS011;59739;47.696;11.746;2023-02-15T05:41:01;1.42;;;0.90;;
71869;SDS011;59739;47.696;11.746;2023-02-15T05:43:28;1.50;;;1.00;;
71869;SDS011;59739;47.696;11.746;2023-02-15T05:45:57;1.42;;;1.20;;
71869;SDS011;59739;47.696;11.746;2023-02-15T05:48:24;1.65;;;1.15;;
71869;SDS011;59739;47.696;11.746;2023-02-15T05:51:02;1.77;;;1.30;;
71869;SDS011;59739;47.696;11.746;2023-02-15T05:53:34;1.90;;;1.30;;
71869;SDS011;59739;47.696;11.746;2023-02-15T05:56:02;2.13;;;1.40;;
71869;SDS011;59739;47.696;11.746;2023-02-15T05:58:32;2.70;;;1.58;;
71869;SDS011;59739;47.696;11.746;2023-02-15T06:01:07;2.05;;;1.75;;
71869;SDS011;59739;47.696;11.746;2023-02-15T06:03:38;3.88;;;1.95;;
71869;SDS011;59739;47.696;11.746;2023-02-15T06:06:04;3.85;;;1.85;;
71869;SDS011;59739;47.696;11.746;2023-02-15T06:08:31;2.75;;;1.73;;
71869;SDS011;59739;47.696;11.746;2023-02-15T06:10:59;2.90;;;1.77;;
71869;SDS011;59739;47.696;11.746;2023-02-15T06:13:25;2.75;;;1.70;;
71869;SDS011;59739;47.696;11.746;2023-02-15T06:15:51;2.45;;;1.77;;
71869;SDS011;59739;47.696;11.746;2023-02-15T06:18:18;1.85;;;1.30;;
71869;SDS011;59739;47.696;11.746;2023-02-15T06:20:47;2.58;;;1.40;;
71869;SDS011;59739;47.696;11.746;2023-02-15T06:23:14;2.75;;;2.03;;
71869;SDS011;59739;47.696;11.746;2023-02-15T06:25:40;2.00;;;1.50;;
71869;SDS011;59739;47.696;11.746;2023-02-15T06:28:07;1.45;;;1.20;;
71869;SDS011;59739;47.696;11.746;2023-02-15T06:30:33;2.00;;;1.55;;
71869;SDS011;59739;47.696;11.746;2023-02-15T06:32:59;2.13;;;1.50;;
71869;SDS011;59739;47.696;11.746;2023-02-15T06:35:25;1.90;;;1.30;;
71869;SDS011;59739;47.696;11.746;2023-02-15T06:37:52;2.20;;;1.48;;
71869;SDS011;59739;47.696;11.746;2023-02-15T06:40:17;3.20;;;2.25;;
71869;SDS011;59739;47.696;11.746;2023-02-15T06:42:44;3.65;;;2.70;;
71869;SDS011;59739;47.696;11.746;2023-02-15T06:45:10;2.78;;;1.70;;
71869;SDS011;59739;47.696;11.746;2023-02-15T06:47:36;2.88;;;1.58;;
71869;SDS011;59739;47.696;11.746;2023-02-15T06:50:03;2.65;;;1.83;;
71869;SDS011;59739;47.696;11.746;2023-02-15T06:52:31;3.70;;;1.80;;
71869;SDS011;59739;47.696;11.746;2023-02-15T06:54:57;3.45;;;1.80;;
71869;SDS011;59739;47.696;11.746;2023-02-15T06:57:23;3.15;;;1.80;;
71869;SDS011;59739;47.696;11.746;2023-02-15T06:59:49;1.90;;;1.42;;
71869;SDS011;59739;47.696;11.746;2023-02-15T07:02:15;2.00;;;1.48;;
71869;SDS011;59739;47.696;11.746;2023-02-15T07:04:41;2.53;;;1.80;;
71869;SDS011;59739;47.696;11.746;2023-02-15T07:07:07;2.83;;;1.73;;
71869;SDS011;59739;47.696;11.746;2023-02-15T07:09:35;1.83;;;1.35;;
71869;SDS011;59739;47.696;11.746;2023-02-15T07:12:02;2.72;;;1.90;;
71869;SDS011;59739;47.696;11.746;2023-02-15T07:14:47;2.78;;;1.38;;
71869;SDS011;59739;47.696;11.746;2023-02-15T07:17:13;2.80;;;1.20;;
71869;SDS011;59739;47.696;11.746;2023-02-15T07:19:39;2.30;;;1.42;;
71869;SDS011;59739;47.696;11.746;2023-02-15T07:22:05;2.75;;;1.50;;
71869;SDS011;59739;47.696;11.746;2023-02-15T07:24:31;2.72;;;1.52;;
71869;SDS011;59739;47.696;11.746;2023-02-15T07:26:57;1.73;;;1.30;;
71869;SDS011;59739;47.696;11.746;2023-02-15T07:29:23;2.95;;;1.23;;
71869;SDS011;59739;47.696;11.746;2023-02-15T07:31:49;1.90;;;1.20;;
71869;SDS011;59739;47.696;11.746;2023-02-15T07:34:15;1.60;;;1.05;;
71869;SDS011;59739;47.696;11.746;2023-02-15T07:36:42;4.00;;;1.90;;
71869;SDS011;59739;47.696;11.746;2023-02-15T07:39:12;4.60;;;1.50;;
71869;SDS011;59739;47.696;11.746;2023-02-15T07:41:38;3.00;;;1.77;;
71869;SDS011;59739;47.696;11.746;2023-02-15T07:44:13;4.30;;;2.20;;
71869;SDS011;59739;47.696;11.746;2023-02-15T07:46:40;3.83;;;2.40;;
71869;SDS011;59739;47.696;11.746;2023-02-15T07:49:06;1.83;;;1.40;;
71869;SDS011;59739;47.696;11.746;2023-02-15T07:51:33;2.30;;;1.30;;
71869;SDS011;59739;47.696;11.746;2023-02-15T07:53:59;2.70;;;1.13;;
71869;SDS011;59739;47.696;11.746;2023-02-15T07:56:25;1.50;;;1.13;;
71869;SDS011;59739;47.696;11.746;2023-02-15T07:58:51;1.55;;;1.13;;
71869;SDS011;59739;47.696;11.746;2023-02-15T08:01:18;2.20;;;1.60;;
71869;SDS011;59739;47.696;11.746;2023-02-15T08:03:49;2.95;;;1.40;;
71869;SDS011;59739;47.696;11.746;2023-02-15T08:06:16;2.10;;;1.55;;
71869;SDS011;59739;47.696;11.746;2023-02-15T08:08:42;2.30;;;1.60;;
71869;SDS011;59739;47.696;11.746;2023-02-15T08:11:20;2.15;;;1.73;;
71869;SDS011;59739;47.696;11.746;2023-02-15T08:19:19;3.00;;;1.40;;
71869;SDS011;59739;47.696;11.746;2023-02-15T08:21:48;1.58;;;1.20;;
71869;SDS011;59739;47.696;11.746;2023-02-15T08:24:21;2.13;;;1.10;;
71869;SDS011;59739;47.696;11.746;2023-02-15T08:26:49;2.60;;;1.20;;
71869;SDS011;59739;47.696;11.746;2023-02-15T08:29:17;2.63;;;1.27;;
71869;SDS011;59739;47.696;11.746;2023-02-15T08:31:49;2.45;;;1.55;;
71869;SDS011;59739;47.696;11.746;2023-02-15T08:34:19;2.40;;;1.50;;
71869;SDS011;59739;47.696;11.746;2023-02-15T08:36:46;1.60;;;1.20;;
71869;SDS011;59739;47.696;11.746;2023-02-15T08:39:13;2.38;;;1.20;;
71869;SDS011;59739;47.696;11.746;2023-02-15T08:41:41;4.82;;;1.35;;
71869;SDS011;59739;47.696;11.746;2023-02-15T08:44:13;1.33;;;1.00;;
71869;SDS011;59739;47.696;11.746;2023-02-15T08:46:42;1.90;;;1.20;;
71869;SDS011;59739;47.696;11.746;2023-02-15T08:49:11;2.63;;;1.30;;
71869;SDS011;59739;47.696;11.746;2023-02-15T08:51:43;2.92;;;1.63;;
71869;SDS011;59739;47.696;11.746;2023-02-15T08:54:10;4.22;;;1.42;;
71869;SDS011;59739;47.696;11.746;2023-02-15T08:56:40;5.13;;;1.70;;
71869;SDS011;59739;47.696;11.746;2023-02-15T08:59:18;4.95;;;1.55;;
71869;SDS011;59739;47.696;11.746;2023-02-15T09:01:47;3.63;;;1.50;;
71869;SDS011;59739;47.696;11.746;2023-02-15T09:04:15;3.80;;;1.58;;
71869;SDS011;59739;47.696;11.746;2023-02-15T09:06:42;4.15;;;1.27;;
71869;SDS011;59739;47.696;11.746;2023-02-15T09:09:09;2.13;;;1.30;;
71869;SDS011;59739;47.696;11.746;2023-02-15T09:11:37;6.50;;;1.63;;
71869;SDS011;59739;47.696;11.746;2023-02-15T09:14:10;2.75;;;1.33;;
71869;SDS011;59739;47.696;11.746;2023-02-15T09:16:40;7.70;;;1.70;;
71869;SDS011;59739;47.696;11.746;2023-02-15T09:19:11;5.90;;;1.65;;
71869;SDS011;59739;47.696;11.746;2023-02-15T09:21:37;1.92;;;1.00;;
71869;SDS011;59739;47.696;11.746;2023-02-15T09:24:05;2.97;;;1.20;;
71869;SDS011;59739;47.696;11.746;2023-02-15T09:26:35;3.08;;;1.10;;
71869;SDS011;59739;47.696;11.746;2023-02-15T09:29:08;2.45;;;1.63;;
71869;SDS011;59739;47.696;11.746;2023-02-15T09:31:40;3.28;;;1.20;;
71869;SDS011;59739;47.696;11.746;2023-02-15T09:34:10;3.67;;;1.20;;
71869;SDS011;59739;47.696;11.746;2023-02-15T09:36:44;1.92;;;1.42;;
71869;SDS011;59739;47.696;11.746;2023-02-15T09:39:19;4.07;;;1.40;;
71869;SDS011;59739;47.696;11.746;2023-02-15T09:45:03;2.33;;;1.73;;
71869;SDS011;59739;47.696;11.746;2023-02-15T09:56:19;1.60;;;1.20;;
71869;SDS011;59739;47.696;11.746;2023-02-15T10:13:31;2.83;;;1.65;;
71869;SDS011;59739;47.696;11.746;2023-02-15T10:16:11;2.22;;;1.52;;
71869;SDS011;59739;47.696;11.746;2023-02-15T10:18:53;4.00;;;1.50;;
71869;SDS011;59739;47.696;11.746;2023-02-15T10:24:27;3.45;;;1.60;;
71869;SDS011;59739;47.696;11.746;2023-02-15T10:27:22;2.88;;;1.50;;
71869;SDS011;59739;47.696;11.746;2023-02-15T10:32:45;2.08;;;1.50;;
71869;SDS011;59739;47.696;11.746;2023-02-15T10:41:08;2.05;;;1.15;;
71869;SDS011;59739;47.696;11.746;2023-02-15T10:47:00;2.42;;;1.25;;
71869;SDS011;59739;47.696;11.746;2023-02-15T10:56:12;6.28;;;2.38;;
71869;SDS011;59739;47.696;11.746;2023-02-15T10:59:05;2.88;;;1.20;;
71869;SDS011;59739;47.696;11.746;2023-02-15T11:02:20;1.75;;;1.30;;
71869;SDS011;59739;47.696;11.746;2023-02-15T11:08:20;4.50;;;1.23;;
71869;SDS011;59739;47.696;11.746;2023-02-15T11:10:49;1.88;;;1.23;;
71869;SDS011;59739;47.696;11.746;2023-02-15T11:13:20;4.75;;;1.20;;
71869;SDS011;59739;47.696;11.746;2023-02-15T11:16:03;2.38;;;1.10;;
71869;SDS011;59739;47.696;11.746;2023-02-15T11:18:58;2.38;;;1.40;;
71869;SDS011;59739;47.696;11.746;2023-02-15T11:21:32;4.72;;;1.55;;
71869;SDS011;59739;47.696;11.746;2023-02-15T11:24:14;4.93;;;1.30;;
71869;SDS011;59739;47.696;11.746;2023-02-15T11:26:46;5.40;;;1.38;;
71869;SDS011;59739;47.696;11.746;2023-02-15T11:32:21;2.45;;;1.40;;
71869;SDS011;59739;47.696;11.746;2023-02-15T11:37:27;1.80;;;1.17;;
71869;SDS011;59739;47.696;11.746;2023-02-15T11:40:30;2.47;;;1.02;;
71869;SDS011;59739;47.696;11.746;2023-02-15T11:43:04;3.80;;;1.30;;
71869;SDS011;59739;47.696;11.746;2023-02-15T11:45:45;4.15;;;0.73;;
71869;SDS011;59739;47.696;11.746;2023-02-15T11:48:12;5.38;;;1.27;;
71869;SDS011;59739;47.696;11.746;2023-02-15T11:50:39;3.05;;;1.10;;
71869;SDS011;59739;47.696;11.746;2023-02-15T11:53:17;2.42;;;1.15;;
71869;SDS011;59739;47.696;11.746;2023-02-15T11:55:53;1.17;;;1.00;;
71869;SDS011;59739;47.696;11.746;2023-02-15T11:58:30;1.77;;;0.90;;
71869;SDS011;59739;47.696;11.746;2023-02-15T12:01:15;1.33;;;0.82;;
71869;SDS011;59739;47.696;11.746;2023-02-15T12:03:52;3.45;;;1.27;;
71869;SDS011;59739;47.696;11.746;2023-02-15T12:06:26;1.50;;;0.80;;
71869;SDS011;59739;47.696;11.746;2023-02-15T12:11:54;1.38;;;0.80;;
71869;SDS011;59739;47.696;11.746;2023-02-15T12:14:49;1.40;;;0.90;;
71869;SDS011;59739;47.696;11.746;2023-02-15T12:17:24;3.28;;;1.00;;
71869;SDS011;59739;47.696;11.746;2023-02-15T12:19:55;2.75;;;1.05;;
71869;SDS011;59739;47.696;11.746;2023-02-15T12:22:25;1.83;;;0.60;;
71869;SDS011;59739;47.696;11.746;2023-02-15T12:24:57;1.40;;;1.10;;
71869;SDS011;59739;47.696;11.746;2023-02-15T12:27:27;2.42;;;0.82;;
71869;SDS011;59739;47.696;11.746;2023-02-15T12:29:59;1.45;;;0.95;;
71869;SDS011;59739;47.696;11.746;2023-02-15T12:32:56;1.42;;;0.80;;
71869;SDS011;59739;47.696;11.746;2023-02-15T12:35:30;3.25;;;1.15;;
71869;SDS011;59739;47.696;11.746;2023-02-15T12:38:04;1.90;;;1.45;;
71869;SDS011;59739;47.696;11.746;2023-02-15T12:40:58;3.92;;;1.17;;
71869;SDS011;59739;47.696;11.746;2023-02-15T12:43:36;1.90;;;1.20;;
71869;SDS011;59739;47.696;11.746;2023-02-15T12:46:24;2.08;;;0.82;;
71869;SDS011;59739;47.696;11.746;2023-02-15T12:49:05;1.60;;;0.95;;
71869;SDS011;59739;47.696;11.746;2023-02-15T12:51:45;2.03;;;1.10;;
71869;SDS011;59739;47.696;11.746;2023-02-15T13:02:31;2.28;;;1.05;;
71869;SDS011;59739;47.696;11.746;2023-02-15T13:10:56;5.63;;;1.20;;
71869;SDS011;59739;47.696;11.746;2023-02-15T13:13:56;1.35;;;1.00;;
71869;SDS011;59739;47.696;11.746;2023-02-15T13:16:36;3.53;;;1.08;;
71869;SDS011;59739;47.696;11.746;2023-02-15T13:19:09;2.25;;;0.90;;
71869;SDS011;59739;47.696;11.746;2023-02-15T13:21:58;3.03;;;1.15;;
71869;SDS011;59739;47.696;11.746;2023-02-15T13:24:35;1.85;;;1.45;;
71869;SDS011;59739;47.696;11.746;2023-02-15T13:27:09;2.47;;;1.20;;
71869;SDS011;59739;47.696;11.746;2023-02-15T13:29:53;1.85;;;1.05;;
71869;SDS011;59739;47.696;11.746;2023-02-15T13:35:04;2.72;;;1.35;;
71869;SDS011;59739;47.696;11.746;2023-02-15T13:37:51;2.65;;;1.52;;
71869;SDS011;59739;47.696;11.746;2023-02-15T13:40:48;6.57;;;1.17;;
71869;SDS011;59739;47.696;11.746;2023-02-15T13:46:11;1.73;;;0.93;;
71869;SDS011;59739;47.696;11.746;2023-02-15T13:49:12;2.95;;;1.05;;
71869;SDS011;59739;47.696;11.746;2023-02-15T14:00:48;6.30;;;1.10;;
71869;SDS011;59739;47.696;11.746;2023-02-15T14:06:11;1.83;;;1.00;;
71869;SDS011;59739;47.696;11.746;2023-02-15T14:18:39;2.70;;;1.10;;
71869;SDS011;59739;47.696;11.746;2023-02-15T14:21:34;4.05;;;1.40;;
71869;SDS011;59739;47.696;11.746;2023-02-15T14:24:16;5.57;;;1.40;;
71869;SDS011;59739;47.696;11.746;2023-02-15T14:30:13;4.32;;;1.13;;
71869;SDS011;59739;47.696;11.746;2023-02-15T14:32:47;7.00;;;1.50;;
71869;SDS011;59739;47.696;11.746;2023-02-15T14:35:20;4.97;;;1.25;;
71869;SDS011;59739;47.696;11.746;2023-02-15T14:40:32;5.43;;;1.05;;
71869;SDS011;59739;47.696;11.746;2023-02-15T14:49:27;3.88;;;1.40;;
71869;SDS011;59739;47.696;11.746;2023-02-15T14:52:05;3.45;;;1.48;;
71869;SDS011;59739;47.696;11.746;2023-02-15T15:02:18;4.78;;;1.73;;
71869;SDS011;59739;47.696;11.746;2023-02-15T15:12:47;4.38;;;1.75;;
71869;SDS011;59739;47.696;11.746;2023-02-15T15:20:45;5.65;;;2.13;;
71869;SDS011;59739;47.696;11.746;2023-02-15T15:49:19;5.13;;;2.10;;
71869;SDS011;59739;47.696;11.746;2023-02-15T15:51:48;6.50;;;2.67;;
71869;SDS011;59739;47.696;11.746;2023-02-15T15:54:19;5.40;;;2.17;;
71869;SDS011;59739;47.696;11.746;2023-02-15T15:56:56;4.95;;;2.00;;
71869;SDS011;59739;47.696;11.746;2023-02-15T15:59:30;4.90;;;2.22;;
71869;SDS011;59739;47.696;11.746;2023-02-15T16:02:05;5.35;;;1.90;;
71869;SDS011;59739;47.696;11.746;2023-02-15T16:04:35;4.53;;;2.20;;
71869;SDS011;59739;47.696;11.746;2023-02-15T16:09:53;9.73;;;2.50;;
71869;SDS011;59739;47.696;11.746;2023-02-15T16:12:23;8.70;;;2.42;;
71869;SDS011;59739;47.696;11.746;2023-02-15T16:14:52;8.02;;;2.30;;
71869;SDS011;59739;47.696;11.746;2023-02-15T16:17:22;10.38;;;2.33;;
71869;SDS011;59739;47.696;11.746;2023-02-15T16:20:06;7.57;;;2.47;;
71869;SDS011;59739;47.696;11.746;2023-02-15T16:22:44;6.93;;;2.15;;
71869;SDS011;59739;47.696;11.746;2023-02-15T16:27:43;9.02;;;2.08;;
71869;SDS011;59739;47.696;11.746;2023-02-15T16:30:29;7.68;;;2.45;;
71869;SDS011;59739;47.696;11.746;2023-02-15T16:33:12;12.23;;;5.53;;
71869;SDS011;59739;47.696;11.746;2023-02-15T16:35:55;7.55;;;4.57;;
71869;SDS011;59739;47.696;11.746;2023-02-15T16:41:12;10.75;;;3.10;;
71869;SDS011;59739;47.696;11.746;2023-02-15T16:43:49;9.38;;;2.13;;
71869;SDS011;59739;47.696;11.746;2023-02-15T16:48:49;9.68;;;2.90;;
71869;SDS011;59739;47.696;11.746;2023-02-15T16:51:20;10.70;;;3.10;;
71869;SDS011;59739;47.696;11.746;2023-02-15T16:53:52;6.60;;;2.60;;
71869;SDS011;59739;47.696;11.746;2023-02-15T16:56:24;4.97;;;2.80;;
71869;SDS011;59739;47.696;11.746;2023-02-15T16:58:55;6.28;;;2.75;;
71869;SDS011;59739;47.696;11.746;2023-02-15T17:01:25;10.48;;;3.00;;
71869;SDS011;59739;47.696;11.746;2023-02-15T17:04:12;6.40;;;3.25;;
71869;SDS011;59739;47.696;11.746;2023-02-15T17:06:58;10.88;;;3.20;;
71869;SDS011;59739;47.696;11.746;2023-02-15T17:09:50;7.25;;;3.13;;
71869;SDS011;59739;47.696;11.746;2023-02-15T17:17:51;12.48;;;4.53;;
71869;SDS011;59739;47.696;11.746;2023-02-15T17:20:19;11.52;;;5.22;;
71869;SDS011;59739;47.696;11.746;2023-02-15T17:22:48;10.65;;;4.72;;
71869;SDS011;59739;47.696;11.746;2023-02-15T17:25:21;20.77;;;11.13;;
71869;SDS011;59739;47.696;11.746;2023-02-15T17:27:54;10.60;;;5.60;;
71869;SDS011;59739;47.696;11.746;2023-02-15T17:30:28;18.80;;;8.32;;
71869;SDS011;59739;47.696;11.746;2023-02-15T17:32:58;12.82;;;5.63;;
71869;SDS011;59739;47.696;11.746;2023-02-15T17:35:29;15.00;;;7.05;;
71869;SDS011;59739;47.696;11.746;2023-02-15T17:38:01;15.90;;;8.05;;
71869;SDS011;59739;47.696;11.746;2023-02-15T17:40:33;14.45;;;7.25;;
71869;SDS011;59739;47.696;11.746;2023-02-15T17:43:01;15.18;;;6.70;;
71869;SDS011;59739;47.696;11.746;2023-02-15T17:45:34;15.57;;;6.53;;
71869;SDS011;59739;47.696;11.746;2023-02-15T17:48:13;11.40;;;6.35;;
71869;SDS011;59739;47.696;11.746;2023-02-15T17:50:58;11.88;;;5.50;;
71869;SDS011;59739;47.696;11.746;2023-02-15T17:53:26;17.10;;;8.23;;
71869;SDS011;59739;47.696;11.746;2023-02-15T17:55:52;14.65;;;7.10;;
71869;SDS011;59739;47.696;11.746;2023-02-15T17:58:19;16.10;;;6.63;;
71869;SDS011;59739;47.696;11.746;2023-02-15T18:00:54;8.98;;;5.53;;
71869;SDS011;59739;47.696;11.746;2023-02-15T18:03:47;10.88;;;5.50;;
71869;SDS011;59739;47.696;11.746;2023-02-15T18:06:34;7.72;;;5.50;;
71869;SDS011;59739;47.696;11.746;2023-02-15T18:09:23;11.20;;;6.38;;
71869;SDS011;59739;47.696;11.746;2023-02-15T18:14:53;8.60;;;6.10;;
71869;SDS011;59739;47.696;11.746;2023-02-15T18:17:21;9.57;;;5.68;;
71869;SDS011;59739;47.696;11.746;2023-02-15T18:19:58;13.20;;;6.78;;
71869;SDS011;59739;47.696;11.746;2023-02-15T18:22:29;15.48;;;9.35;;
71869;SDS011;59739;47.696;11.746;2023-02-15T18:24:56;19.83;;;13.52;;
71869;SDS011;59739;47.696;11.746;2023-02-15T18:27:23;11.50;;;6.65;;
71869;SDS011;59739;47.696;11.746;2023-02-15T18:29:49;12.23;;;6.35;;
71869;SDS011;59739;47.696;11.746;2023-02-15T18:32:16;12.18;;;6.68;;
71869;SDS011;59739;47.696;11.746;2023-02-15T18:34:57;17.95;;;8.02;;
71869;SDS011;59739;47.696;11.746;2023-02-15T18:37:24;16.48;;;7.05;;
71869;SDS011;59739;47.696;11.746;2023-02-15T18:39:57;13.63;;;7.95;;
71869;SDS011;59739;47.696;11.746;2023-02-15T18:42:26;8.43;;;6.45;;